Bolzano Airport LIPB

Flugplatz Daten

Name: Bolzano Airport

Ident: LIPB

Lat: 46,46020126

Long: 11,3263998

Platzhöhe: 789 ft

IataCode: BZO

City: Bolzano

Homepage: http://www.abd-airport.it/en/home.htm

Metar

2021/08/05 14:50
LIPB 051450Z 27005KT 220V310 9999 SCT070 28/11 Q1005 RMK MON LIB

Taf

2021/08/05 12:21
TAF LIPB 051100Z 0512/0612 VRB06KT 9999 SCT060
TEMPO 0518/0522 SHRA
BECMG 0610/0612 20010KT

Webcams

Airport Airport 2 Panorama
Gewünschte Webcam nicht vorhanden? Dann fügen Sie eine hinzu. Sie wird dann so schnell wie möglich freigeschaltet
Url: Title: